Time;durP1;ratioP1;P1;durP2;ratioP2;P2;SDS_P1;SDS_P2;PMS_P1;PMS_P2;Temp;Humidity;BMP_temperature;BMP_pressure;BME280_temperature;BME280_humidity;BME280_pressure;Samples;Min_cycle;Max_cycle;Signal;HPM_P1;HPM_P2
2024/01/24 00:01:51;;;;;;;4.63;1.73;;;12.60;99.90;;;;;;5060332;28;20483;-85
2024/01/24 00:04:17;;;;;;;2.80;1.60;;;12.60;99.90;;;;;;5060426;28;20028;-84
2024/01/24 00:06:43;;;;;;;4.85;2.15;;;12.60;99.90;;;;;;5076569;28;20048;-84
2024/01/24 00:09:08;;;;;;;4.82;2.05;;;12.60;99.90;;;;;;5077364;28;20039;-84
2024/01/24 00:11:34;;;;;;;5.00;1.95;;;12.60;99.90;;;;;;5043911;28;20034;-85
2024/01/24 00:14:00;;;;;;;6.07;1.80;;;12.60;99.90;;;;;;5076500;28;20071;-84
2024/01/24 00:16:25;;;;;;;5.85;1.95;;;12.60;99.90;;;;;;5044113;28;20099;-85
2024/01/24 00:18:51;;;;;;;5.53;2.00;;;12.70;99.90;;;;;;5043874;28;20078;-84
2024/01/24 00:21:17;;;;;;;9.05;1.77;;;12.70;99.90;;;;;;5043681;28;20069;-84
2024/01/24 00:23:42;;;;;;;3.92;1.50;;;12.70;99.90;;;;;;5076883;28;20078;-84
2024/01/24 00:26:08;;;;;;;2.45;1.30;;;12.70;99.90;;;;;;5060877;28;20077;-83
2024/01/24 00:28:34;;;;;;;3.58;1.20;;;12.70;99.90;;;;;;5060734;28;20023;-85
2024/01/24 00:30:59;;;;;;;2.25;1.10;;;12.70;99.90;;;;;;5044165;28;20028;-83
2024/01/24 00:33:28;;;;;;;4.53;1.40;;;12.70;99.90;;;;;;5083007;28;20028;-84
2024/01/24 00:35:55;;;;;;;4.15;1.33;;;12.70;99.90;;;;;;5099711;28;20020;-84
2024/01/24 00:38:20;;;;;;;2.83;1.13;;;12.80;99.90;;;;;;5082539;28;20023;-83
2024/01/24 00:40:46;;;;;;;2.70;0.88;;;12.80;99.90;;;;;;5081987;28;20004;-83
2024/01/24 00:43:12;;;;;;;3.28;1.15;;;12.90;99.90;;;;;;5071527;28;20069;-85
2024/01/24 00:45:37;;;;;;;2.70;0.93;;;12.90;99.90;;;;;;5079036;28;20035;-84
2024/01/24 00:48:03;;;;;;;2.83;0.75;;;12.90;99.90;;;;;;5079251;28;20028;-85
2024/01/24 00:50:29;;;;;;;2.08;0.75;;;12.90;99.90;;;;;;5076721;28;20028;-85
2024/01/24 00:52:55;;;;;;;2.15;0.80;;;12.90;99.90;;;;;;5043869;28;20150;-83
2024/01/24 00:55:22;;;;;;;3.25;0.90;;;12.90;99.90;;;;;;5043779;28;20081;-83
2024/01/24 00:57:47;;;;;;;1.52;0.70;;;13.00;99.90;;;;;;5059582;28;20024;-84
2024/01/24 01:00:14;;;;;;;1.88;0.80;;;13.00;99.90;;;;;;5077026;28;20081;-84
2024/01/24 01:02:40;;;;;;;4.05;0.90;;;12.90;99.90;;;;;;5076848;28;20024;-84
2024/01/24 01:05:06;;;;;;;0.98;0.60;;;12.90;99.90;;;;;;5060066;28;20027;-84
2024/01/24 01:07:32;;;;;;;2.28;0.70;;;13.00;99.90;;;;;;5073092;28;20408;-83
2024/01/24 01:09:58;;;;;;;1.10;0.60;;;12.90;99.90;;;;;;5056629;28;20127;-83
2024/01/24 01:12:24;;;;;;;1.60;0.90;;;12.90;99.90;;;;;;5057273;28;20489;-83
2024/01/24 01:14:50;;;;;;;2.55;0.95;;;13.00;99.90;;;;;;5074173;28;20066;-84
2024/01/24 01:17:15;;;;;;;1.88;0.80;;;12.90;99.90;;;;;;5040410;28;20158;-85
2024/01/24 01:19:41;;;;;;;2.10;0.65;;;13.00;99.90;;;;;;5057486;28;20398;-84
2024/01/24 01:22:06;;;;;;;0.60;0.57;;;13.00;99.90;;;;;;5040263;28;20491;-84
2024/01/24 01:24:35;;;;;;;2.05;0.68;;;12.90;99.90;;;;;;5040841;28;20490;-85
2024/01/24 01:27:02;;;;;;;0.73;0.50;;;12.90;99.90;;;;;;5057223;28;20033;-84
2024/01/24 01:29:51;;;;;;;2.25;0.57;;;12.90;99.90;;;;;;5057093;28;20040;-85
2024/01/24 01:32:17;;;;;;;1.92;0.63;;;12.80;99.90;;;;;;5074656;28;20033;-85
2024/01/24 01:34:42;;;;;;;0.95;0.52;;;12.80;99.90;;;;;;5073293;28;20021;-84
2024/01/24 01:37:08;;;;;;;0.95;0.70;;;12.80;99.90;;;;;;5056699;28;20035;-85
2024/01/24 01:39:34;;;;;;;2.00;0.60;;;12.70;99.90;;;;;;5073357;28;20088;-84
2024/01/24 01:41:59;;;;;;;0.82;0.68;;;12.70;99.90;;;;;;5073753;28;20078;-85
2024/01/24 01:44:26;;;;;;;1.20;0.80;;;12.70;99.90;;;;;;5056274;28;20056;-85
2024/01/24 01:46:51;;;;;;;2.97;0.73;;;12.70;99.90;;;;;;5073300;28;20024;-84
2024/01/24 01:49:18;;;;;;;1.83;0.88;;;12.70;99.90;;;;;;5058446;28;20430;-84
2024/01/24 01:51:45;;;;;;;0.93;0.70;;;12.60;99.90;;;;;;5062860;28;20439;-84
2024/01/24 01:54:12;;;;;;;1.45;0.80;;;12.60;99.90;;;;;;5048071;28;20058;-84
2024/01/24 01:56:39;;;;;;;1.65;0.75;;;12.60;99.90;;;;;;5077971;28;20043;-86
2024/01/24 01:59:05;;;;;;;0.80;0.70;;;12.60;99.90;;;;;;5072235;28;20051;-85
2024/01/24 02:01:31;;;;;;;1.83;0.70;;;12.60;99.90;;;;;;5073967;28;20028;-87
2024/01/24 02:03:58;;;;;;;0.90;0.85;;;12.60;99.90;;;;;;5059178;28;20352;-86
2024/01/24 02:06:24;;;;;;;1.10;0.70;;;12.60;99.90;;;;;;5042943;28;20066;-86
2024/01/24 02:08:51;;;;;;;0.65;0.60;;;12.50;99.90;;;;;;5062892;28;20029;-87
2024/01/24 02:11:17;;;;;;;0.80;0.70;;;12.50;99.90;;;;;;5080112;28;20504;-86
2024/01/24 02:13:43;;;;;;;1.08;0.70;;;12.50;99.90;;;;;;5105950;28;20053;-85
2024/01/24 02:16:13;;;;;;;0.70;0.70;;;12.50;99.90;;;;;;5070618;28;20016;-85
2024/01/24 02:18:41;;;;;;;1.23;0.90;;;12.50;99.90;;;;;;5087944;28;20009;-86
2024/01/24 02:21:07;;;;;;;0.70;0.70;;;12.50;99.90;;;;;;5103778;28;20016;-85
2024/01/24 02:23:36;;;;;;;0.65;0.65;;;12.50;99.90;;;;;;5096734;28;20020;-87
2024/01/24 02:26:05;;;;;;;0.82;0.63;;;12.50;99.90;;;;;;5097789;28;20020;-86
2024/01/24 02:28:31;;;;;;;1.33;0.85;;;12.50;99.90;;;;;;5063690;28;20031;-87
2024/01/24 02:30:56;;;;;;;0.70;0.70;;;12.50;99.90;;;;;;5062538;28;20085;-87
2024/01/24 02:33:22;;;;;;;2.67;1.00;;;12.40;99.90;;;;;;5062079;28;20024;-87
2024/01/24 02:35:48;;;;;;;0.85;0.85;;;12.50;99.90;;;;;;5062522;28;20051;-86
2024/01/24 02:38:13;;;;;;;1.17;0.80;;;12.40;99.90;;;;;;5078849;28;20120;-88
2024/01/24 02:40:39;;;;;;;0.70;0.70;;;12.40;99.90;;;;;;5097250;28;20545;-87
2024/01/24 02:43:05;;;;;;;0.77;0.77;;;12.50;99.90;;;;;;5078799;28;20025;-86
2024/01/24 02:45:31;;;;;;;1.02;0.70;;;12.50;99.90;;;;;;5078639;28;20145;-86
2024/01/24 02:47:57;;;;;;;0.70;0.70;;;12.50;99.90;;;;;;5096829;28;20022;-86
2024/01/24 02:50:23;;;;;;;0.73;0.68;;;12.50;99.90;;;;;;5062253;28;20493;-87
2024/01/24 02:52:48;;;;;;;0.60;0.60;;;12.50;99.90;;;;;;5078597;28;20453;-86
2024/01/24 02:55:17;;;;;;;0.65;0.65;;;12.50;99.90;;;;;;5061878;28;20495;-86
2024/01/24 02:57:44;;;;;;;0.73;0.70;;;12.50;99.90;;;;;;5062701;28;20024;-85
2024/01/24 03:00:12;;;;;;;1.23;0.80;;;12.50;99.90;;;;;;5078399;28;20372;-85
2024/01/24 03:02:41;;;;;;;1.05;0.63;;;12.50;99.90;;;;;;5096501;28;20111;-86
2024/01/24 03:05:08;;;;;;;1.25;0.90;;;12.50;99.90;;;;;;5078183;28;20153;-85
2024/01/24 03:07:35;;;;;;;1.25;0.88;;;12.50;99.90;;;;;;5061627;28;20044;-86
2024/01/24 03:10:02;;;;;;;1.13;0.80;;;12.50;99.90;;;;;;5096202;28;20042;-86
2024/01/24 03:12:28;;;;;;;1.67;0.80;;;12.50;99.90;;;;;;5061305;28;20511;-86
2024/01/24 03:14:53;;;;;;;1.10;0.80;;;12.50;99.90;;;;;;5078035;28;20024;-86
2024/01/24 03:17:19;;;;;;;1.88;1.00;;;12.50;99.90;;;;;;5061304;28;20422;-85
2024/01/24 03:19:45;;;;;;;1.73;1.05;;;12.50;99.90;;;;;;5077917;28;20464;-86
2024/01/24 03:22:11;;;;;;;1.60;1.10;;;12.50;99.90;;;;;;5061252;28;20039;-86
2024/01/24 03:24:37;;;;;;;1.58;0.98;;;12.50;99.90;;;;;;5044654;28;20036;-86
2024/01/24 03:27:03;;;;;;;3.00;1.00;;;12.50;99.90;;;;;;5095866;28;20035;-87
2024/01/24 03:29:28;;;;;;;1.50;1.08;;;12.50;99.90;;;;;;5077693;28;20051;-86
2024/01/24 03:31:54;;;;;;;1.90;0.90;;;12.50;99.90;;;;;;5077843;28;20114;-86
2024/01/24 03:34:20;;;;;;;3.92;1.38;;;12.50;99.90;;;;;;5077950;28;20020;-85
2024/01/24 03:36:46;;;;;;;4.85;1.60;;;12.50;99.90;;;;;;5096210;28;20495;-87
2024/01/24 03:39:12;;;;;;;1.98;1.02;;;12.50;99.90;;;;;;5060929;28;20060;-86
2024/01/24 03:41:38;;;;;;;3.20;1.20;;;12.40;99.90;;;;;;5061574;28;20024;-87
2024/01/24 03:44:04;;;;;;;4.18;1.45;;;12.40;99.90;;;;;;5078277;28;20020;-86
2024/01/24 03:46:30;;;;;;;4.40;1.20;;;12.40;99.90;;;;;;5079493;28;20031;-86
2024/01/24 03:48:56;;;;;;;4.20;1.40;;;12.40;99.90;;;;;;5096269;28;20064;-85
2024/01/24 03:51:22;;;;;;;4.60;1.48;;;12.40;99.90;;;;;;5067909;28;20070;-85
2024/01/24 03:53:48;;;;;;;4.10;1.30;;;12.40;99.90;;;;;;5100103;28;20039;-86
2024/01/24 03:56:13;;;;;;;6.95;1.83;;;12.30;99.90;;;;;;5099594;28;20100;-85
2024/01/24 03:58:39;;;;;;;7.93;1.73;;;12.30;99.90;;;;;;5098592;28;20028;-85
2024/01/24 04:01:07;;;;;;;4.55;1.60;;;12.40;99.90;;;;;;5077404;28;20070;-85
2024/01/24 04:03:33;;;;;;;7.03;1.35;;;12.30;99.90;;;;;;5077717;28;20105;-86
2024/01/24 04:05:59;;;;;;;8.52;2.10;;;12.30;99.90;;;;;;5060448;28;20056;-86
2024/01/24 04:08:24;;;;;;;5.20;1.40;;;12.30;99.90;;;;;;5059944;28;20074;-86
2024/01/24 04:10:50;;;;;;;6.25;1.10;;;12.30;99.90;;;;;;5059988;28;20456;-86
2024/01/24 04:13:16;;;;;;;8.10;2.10;;;12.30;99.90;;;;;;5043389;28;20035;-86
2024/01/24 04:15:41;;;;;;;5.55;1.80;;;12.30;99.90;;;;;;5059617;28;20429;-86
2024/01/24 04:18:07;;;;;;;5.03;1.30;;;12.30;99.90;;;;;;5043269;28;20020;-84
2024/01/24 04:20:33;;;;;;;6.55;1.98;;;12.20;99.90;;;;;;5076699;28;20032;-87
2024/01/24 04:22:59;;;;;;;7.60;1.88;;;12.20;99.90;;;;;;5076838;28;20034;-86
2024/01/24 04:25:25;;;;;;;6.25;1.85;;;12.20;99.90;;;;;;5058763;28;20062;-85
2024/01/24 04:27:50;;;;;;;11.60;3.08;;;12.20;99.90;;;;;;5060097;28;20036;-86
2024/01/24 04:30:16;;;;;;;11.85;2.72;;;12.10;99.90;;;;;;5059837;28;20028;-87
2024/01/24 04:32:42;;;;;;;12.43;3.13;;;12.10;99.90;;;;;;5076425;28;20112;-85
2024/01/24 04:35:11;;;;;;;13.75;3.08;;;12.10;99.90;;;;;;5076579;28;20054;-86
2024/01/24 04:37:37;;;;;;;12.80;4.00;;;12.00;99.90;;;;;;5076604;28;20468;-86
2024/01/24 04:40:03;;;;;;;10.98;2.88;;;12.00;99.90;;;;;;5076397;28;20027;-86
2024/01/24 04:42:28;;;;;;;13.63;3.47;;;12.00;99.90;;;;;;5076376;28;20088;-86
2024/01/24 04:44:54;;;;;;;18.48;3.63;;;12.00;99.90;;;;;;5059840;28;20028;-86
2024/01/24 04:47:22;;;;;;;14.98;3.22;;;12.00;99.90;;;;;;5094506;28;20101;-86
2024/01/24 04:49:48;;;;;;;14.35;3.53;;;11.90;99.90;;;;;;5076132;28;20069;-86
2024/01/24 04:52:13;;;;;;;13.00;3.30;;;11.90;99.90;;;;;;5076342;28;20032;-85
2024/01/24 04:54:41;;;;;;;15.40;3.95;;;11.90;99.90;;;;;;5076535;28;20059;-86
2024/01/24 04:57:07;;;;;;;15.75;4.10;;;11.90;99.90;;;;;;5059574;28;20036;-86
2024/01/24 04:59:33;;;;;;;19.88;3.75;;;11.80;99.90;;;;;;5059487;28;20035;-86
2024/01/24 05:01:58;;;;;;;21.58;5.55;;;11.80;99.90;;;;;;5059365;28;20032;-87
2024/01/24 05:04:24;;;;;;;14.45;3.90;;;11.80;99.90;;;;;;5076386;28;20035;-85
2024/01/24 05:06:50;;;;;;;20.85;4.30;;;11.80;99.90;;;;;;5094310;28;20036;-85
2024/01/24 05:09:16;;;;;;;20.70;4.57;;;11.80;99.90;;;;;;5059876;28;20364;-86
2024/01/24 05:11:41;;;;;;;22.17;5.38;;;11.80;99.90;;;;;;5059723;28;20089;-86
2024/01/24 05:14:07;;;;;;;20.77;4.82;;;11.80;99.90;;;;;;5059911;28;20082;-86
2024/01/24 05:16:33;;;;;;;22.63;5.50;;;11.80;99.90;;;;;;5044129;28;20217;-86
2024/01/24 05:18:59;;;;;;;20.88;4.15;;;11.80;99.90;;;;;;5081223;28;20050;-87
2024/01/24 05:21:24;;;;;;;25.88;5.22;;;11.80;99.90;;;;;;5111541;28;20093;-87
2024/01/24 05:23:51;;;;;;;21.17;4.55;;;11.80;99.90;;;;;;5100124;28;20028;-87
2024/01/24 05:26:17;;;;;;;24.35;4.72;;;11.80;99.90;;;;;;5117208;28;20052;-85
2024/01/24 05:28:43;;;;;;;20.67;5.28;;;11.70;99.90;;;;;;5081425;28;20050;-87
2024/01/24 05:31:09;;;;;;;24.95;5.63;;;11.70;99.90;;;;;;5091093;28;20371;-88
2024/01/24 05:33:34;;;;;;;23.13;5.75;;;11.70;99.90;;;;;;5060640;28;20025;-87
2024/01/24 05:36:01;;;;;;;26.92;5.93;;;11.70;99.90;;;;;;5043746;28;20380;-85
2024/01/24 05:38:27;;;;;;;26.45;5.57;;;11.70;99.90;;;;;;5046684;28;20028;-85
2024/01/24 05:40:53;;;;;;;25.80;5.28;;;11.60;99.90;;;;;;5063104;28;20069;-84
2024/01/24 05:43:19;;;;;;;23.25;5.57;;;11.60;99.90;;;;;;5079422;28;20103;-85
2024/01/24 05:45:49;;;;;;;20.38;5.82;;;11.60;99.90;;;;;;5078502;28;20468;-85
2024/01/24 05:48:15;;;;;;;29.17;6.45;;;11.60;99.90;;;;;;5079487;28;20106;-86
2024/01/24 05:50:41;;;;;;;26.40;6.05;;;11.60;99.90;;;;;;5078859;28;20494;-84
2024/01/24 05:53:06;;;;;;;22.55;6.45;;;11.60;99.90;;;;;;5062154;28;20445;-84
2024/01/24 05:55:32;;;;;;;27.90;6.38;;;11.50;99.90;;;;;;5062665;28;20490;-85
2024/01/24 05:57:58;;;;;;;32.42;6.85;;;11.50;99.90;;;;;;5046854;28;20078;-87
2024/01/24 06:00:23;;;;;;;24.77;5.68;;;11.50;99.90;;;;;;5097243;28;20066;-85
2024/01/24 06:02:49;;;;;;;27.63;6.30;;;11.50;99.90;;;;;;5062412;28;20379;-86
2024/01/24 06:05:15;;;;;;;31.02;6.55;;;11.60;99.90;;;;;;5062458;28;20102;-84
2024/01/24 06:07:41;;;;;;;25.05;7.03;;;11.50;99.90;;;;;;5045615;28;20060;-86
2024/01/24 06:10:07;;;;;;;22.63;6.25;;;11.50;99.90;;;;;;5045680;28;20444;-87
2024/01/24 06:12:33;;;;;;;28.95;6.95;;;11.50;99.90;;;;;;5045640;28;20399;-85
2024/01/24 06:14:59;;;;;;;31.48;7.55;;;11.50;99.90;;;;;;5062303;28;20036;-85
2024/01/24 06:17:24;;;;;;;31.88;7.15;;;11.50;99.90;;;;;;5078885;28;20460;-85
2024/01/24 06:19:51;;;;;;;27.92;7.35;;;11.50;99.90;;;;;;5062078;28;20028;-85
2024/01/24 06:22:17;;;;;;;30.27;7.40;;;11.50;99.90;;;;;;5097095;28;20153;-86
2024/01/24 06:24:44;;;;;;;27.75;6.53;;;11.40;99.90;;;;;;5096591;28;20049;-87
2024/01/24 06:27:10;;;;;;;35.60;7.35;;;11.40;99.90;;;;;;5062455;28;20476;-85
2024/01/24 06:29:36;;;;;;;27.05;6.95;;;11.40;99.90;;;;;;5062027;28;20365;-86
2024/01/24 06:32:02;;;;;;;28.35;6.78;;;11.40;99.90;;;;;;5078749;28;20039;-86
2024/01/24 06:34:27;;;;;;;28.52;7.32;;;11.40;99.90;;;;;;5062003;28;20453;-85
2024/01/24 06:36:53;;;;;;;27.13;6.07;;;11.30;99.90;;;;;;5062365;28;20033;-86
2024/01/24 06:39:19;;;;;;;28.20;7.00;;;11.30;99.90;;;;;;5078644;28;20430;-85
2024/01/24 06:41:45;;;;;;;32.00;7.50;;;11.20;99.90;;;;;;5078491;28;20032;-86
2024/01/24 06:44:10;;;;;;;35.22;7.18;;;11.20;99.90;;;;;;5096851;28;20024;-85
2024/01/24 06:46:43;;;;;;;29.77;7.75;;;11.20;99.90;;;;;;5097164;28;20028;-85
2024/01/24 06:49:12;;;;;;;35.75;8.00;;;11.20;99.90;;;;;;5078510;28;20385;-85
2024/01/24 06:51:38;;;;;;;35.33;7.60;;;11.10;99.90;;;;;;5081746;28;20032;-85
2024/01/24 06:54:05;;;;;;;36.53;8.10;;;11.10;99.90;;;;;;5100175;28;20008;-84
2024/01/24 06:56:31;;;;;;;29.52;7.45;;;11.00;99.90;;;;;;5120090;28;20015;-82
2024/01/24 06:58:56;;;;;;;27.25;6.50;;;11.00;99.90;;;;;;5101284;28;20020;-85
2024/01/24 07:01:22;;;;;;;29.77;7.95;;;10.90;99.90;;;;;;5098004;28;20032;-79
2024/01/24 07:03:48;;;;;;;32.08;8.10;;;10.90;99.90;;;;;;5081637;28;20395;-86
2024/01/24 07:06:14;;;;;;;40.08;8.45;;;10.90;99.90;;;;;;5078383;28;20147;-85
2024/01/24 07:08:40;;;;;;;38.80;8.23;;;10.90;99.90;;;;;;5041494;28;20049;-86
2024/01/24 07:11:09;;;;;;;39.80;7.65;;;10.80;99.90;;;;;;5058191;28;20029;-86
2024/01/24 07:13:36;;;;;;;31.60;7.88;;;10.70;99.90;;;;;;5058426;28;20435;-85
2024/01/24 07:16:04;;;;;;;34.83;8.77;;;10.70;99.90;;;;;;5074408;28;20052;-85
2024/01/24 07:18:31;;;;;;;31.30;7.38;;;10.70;99.90;;;;;;5041764;28;20020;-83
2024/01/24 07:20:57;;;;;;;30.52;7.97;;;10.70;99.90;;;;;;5075849;28;20021;-86
2024/01/24 07:23:25;;;;;;;37.92;8.98;;;10.60;99.90;;;;;;5074479;28;20017;-86
2024/01/24 07:25:51;;;;;;;37.85;8.20;;;10.50;99.90;;;;;;5041216;28;20399;-86
2024/01/24 07:28:18;;;;;;;30.38;7.82;;;10.50;99.90;;;;;;5074308;28;20107;-87
2024/01/24 07:30:44;;;;;;;33.58;9.45;;;10.50;99.90;;;;;;5074160;28;20123;-87
2024/01/24 07:33:09;;;;;;;39.45;8.38;;;10.50;99.90;;;;;;5041028;28;20120;-87
2024/01/24 07:35:35;;;;;;;29.25;8.25;;;10.50;99.90;;;;;;5074140;28;20029;-86
2024/01/24 07:38:01;;;;;;;29.98;8.00;;;10.40;99.90;;;;;;5057274;28;20035;-86
2024/01/24 07:40:26;;;;;;;33.20;8.27;;;10.40;99.90;;;;;;5057393;28;20028;-86
2024/01/24 07:42:55;;;;;;;40.83;8.35;;;10.40;99.90;;;;;;5057348;28;20107;-86
2024/01/24 07:45:22;;;;;;;36.67;7.90;;;10.40;99.90;;;;;;5041522;28;20468;-86
2024/01/24 07:47:49;;;;;;;37.90;8.48;;;10.40;99.90;;;;;;5041355;28;20123;-87
2024/01/24 07:50:16;;;;;;;32.03;7.82;;;10.30;99.90;;;;;;5075227;28;20396;-86
2024/01/24 07:52:42;;;;;;;34.63;8.43;;;10.30;99.90;;;;;;5073759;28;20119;-86
2024/01/24 07:55:08;;;;;;;29.55;7.68;;;10.30;99.90;;;;;;5040936;28;20024;-86
2024/01/24 07:57:33;;;;;;;39.65;8.00;;;10.40;99.90;;;;;;5073455;28;20081;-85
2024/01/24 07:59:59;;;;;;;32.55;8.20;;;10.30;99.90;;;;;;5057216;28;20036;-87
2024/01/24 08:02:25;;;;;;;34.63;8.63;;;10.30;99.90;;;;;;5040798;28;20029;-86
2024/01/24 08:04:50;;;;;;;35.33;8.60;;;10.30;99.90;;;;;;5040515;28;20137;-86
2024/01/24 08:07:16;;;;;;;36.47;8.82;;;10.20;99.90;;;;;;5040470;28;20048;-87
2024/01/24 08:09:43;;;;;;;34.75;7.95;;;10.20;99.90;;;;;;5057775;28;20450;-86
2024/01/24 08:12:09;;;;;;;36.58;8.68;;;10.20;99.90;;;;;;5041215;28;20131;-86
2024/01/24 08:14:37;;;;;;;43.53;8.32;;;10.20;99.90;;;;;;5058432;28;20072;-86
2024/01/24 08:17:05;;;;;;;31.67;7.43;;;10.10;99.90;;;;;;5058693;28;20081;-85
2024/01/24 08:19:31;;;;;;;29.83;7.50;;;10.10;99.90;;;;;;5057475;28;20036;-86
2024/01/24 08:21:57;;;;;;;42.72;9.25;;;10.20;99.90;;;;;;5076260;28;20046;-88
2024/01/24 08:24:22;;;;;;;32.47;7.55;;;10.20;99.90;;;;;;5077354;28;20100;-86
2024/01/24 08:26:50;;;;;;;33.88;8.65;;;10.10;99.90;;;;;;5097293;28;20024;-84
2024/01/24 08:29:17;;;;;;;34.67;8.27;;;10.10;99.90;;;;;;5080075;28;20048;-84
2024/01/24 08:31:43;;;;;;;38.97;8.13;;;10.10;99.90;;;;;;5093241;28;20055;-83
2024/01/24 08:34:09;;;;;;;31.55;7.13;;;10.10;99.90;;;;;;5041245;28;20028;-85
2024/01/24 08:36:34;;;;;;;35.53;7.35;;;10.10;99.90;;;;;;5073818;28;20032;-85
2024/01/24 08:39:02;;;;;;;34.28;7.25;;;10.20;99.90;;;;;;5072968;28;20523;-85
2024/01/24 08:41:28;;;;;;;30.15;8.57;;;10.20;99.90;;;;;;5056659;28;20179;-86
2024/01/24 08:43:57;;;;;;;27.40;6.65;;;10.10;99.90;;;;;;5056227;28;20060;-85
2024/01/24 08:46:23;;;;;;;30.85;7.43;;;10.20;99.90;;;;;;5056402;28;20032;-85
2024/01/24 08:48:48;;;;;;;33.95;7.20;;;10.20;99.90;;;;;;5072699;28;20028;-84
2024/01/24 08:51:14;;;;;;;28.33;7.20;;;10.20;99.90;;;;;;5072658;28;20472;-86
2024/01/24 08:53:40;;;;;;;35.58;8.23;;;10.20;99.90;;;;;;5056000;28;20476;-84
2024/01/24 08:56:06;;;;;;;30.48;6.85;;;10.20;99.90;;;;;;5055927;28;20025;-85
2024/01/24 08:58:31;;;;;;;30.77;7.20;;;10.10;99.90;;;;;;5072887;28;20028;-85
2024/01/24 09:00:58;;;;;;;30.40;7.72;;;10.10;99.90;;;;;;5055893;28;20025;-85
2024/01/24 09:03:24;;;;;;;31.73;7.63;;;10.20;99.90;;;;;;5072325;28;20056;-84
2024/01/24 09:05:51;;;;;;;31.67;7.90;;;10.20;99.90;;;;;;5055884;28;20047;-87
2024/01/24 09:08:17;;;;;;;34.70;7.65;;;10.20;99.90;;;;;;5073150;28;20048;-87
2024/01/24 09:10:43;;;;;;;34.38;8.68;;;10.20;99.90;;;;;;5055757;28;20484;-85
2024/01/24 09:13:08;;;;;;;31.45;7.88;;;10.20;99.90;;;;;;5056529;28;20051;-87
2024/01/24 09:15:34;;;;;;;32.78;7.57;;;10.30;99.90;;;;;;5074187;28;20392;-87
2024/01/24 09:18:00;;;;;;;27.40;7.05;;;10.30;99.90;;;;;;5039428;28;20103;-86
2024/01/24 09:20:26;;;;;;;31.52;7.45;;;10.30;99.90;;;;;;5072608;28;20033;-87
2024/01/24 09:22:52;;;;;;;31.83;7.22;;;10.30;99.90;;;;;;5072395;28;20052;-86
2024/01/24 09:25:19;;;;;;;34.38;7.57;;;10.30;99.90;;;;;;5056327;28;20062;-87
2024/01/24 09:27:45;;;;;;;31.83;7.85;;;10.30;99.90;;;;;;5074182;28;20024;-84
2024/01/24 09:30:11;;;;;;;36.30;8.82;;;10.30;99.90;;;;;;5074077;28;20036;-87
2024/01/24 09:32:37;;;;;;;31.27;7.82;;;10.40;99.90;;;;;;5056396;28;20440;-88
2024/01/24 09:35:03;;;;;;;27.85;7.30;;;10.40;99.90;;;;;;5056335;28;20035;-86
2024/01/24 09:37:29;;;;;;;33.00;7.28;;;10.40;99.90;;;;;;5073970;28;20089;-88
2024/01/24 09:39:56;;;;;;;28.00;6.75;;;10.40;99.90;;;;;;5074568;28;20056;-86
2024/01/24 09:42:25;;;;;;;35.40;8.80;;;10.40;99.90;;;;;;5065754;28;20036;-87
2024/01/24 09:44:51;;;;;;;27.10;7.25;;;10.40;99.90;;;;;;5086340;28;20182;-87
2024/01/24 09:47:19;;;;;;;34.50;7.63;;;10.40;99.90;;;;;;5086348;28;20031;-87
2024/01/24 09:49:46;;;;;;;29.20;6.85;;;10.40;99.90;;;;;;5088882;28;20029;-86
2024/01/24 09:52:18;;;;;;;28.05;7.20;;;10.40;99.90;;;;;;5090600;28;20036;-86
2024/01/24 09:54:45;;;;;;;30.73;6.95;;;10.40;99.90;;;;;;5094782;28;20049;-90
2024/01/24 09:57:12;;;;;;;31.98;7.50;;;10.50;99.90;;;;;;5082457;28;20104;-87
2024/01/24 09:59:38;;;;;;;29.77;7.72;;;10.50;99.90;;;;;;5078535;28;20070;-87
2024/01/24 10:02:06;;;;;;;33.22;7.22;;;10.50;99.90;;;;;;5060463;28;20036;-88
2024/01/24 10:04:37;;;;;;;31.88;8.20;;;10.50;99.90;;;;;;5072820;28;20123;-87
2024/01/24 10:07:07;;;;;;;29.50;7.35;;;10.60;99.90;;;;;;5072800;28;20028;-87
2024/01/24 10:09:33;;;;;;;27.67;6.53;;;10.60;99.90;;;;;;5093647;28;20052;-87
2024/01/24 10:11:59;;;;;;;30.23;6.95;;;10.70;99.90;;;;;;5076008;28;20102;-88
2024/01/24 10:14:25;;;;;;;35.70;7.90;;;10.70;99.90;;;;;;5059422;28;20036;-87
2024/01/24 10:17:14;;;;;;;32.53;7.85;;;10.70;99.90;;;;;;5075747;28;20380;-84
2024/01/24 10:19:40;;;;;;;31.75;7.32;;;10.80;99.90;;;;;;5075561;28;20038;-86
2024/01/24 10:22:07;;;;;;;32.55;8.07;;;10.80;99.90;;;;;;5076554;28;20044;-87
2024/01/24 10:24:33;;;;;;;32.17;7.22;;;10.80;99.90;;;;;;5079125;28;20024;-87
2024/01/24 10:26:58;;;;;;;32.83;8.13;;;10.90;99.90;;;;;;5079059;28;20039;-87
2024/01/24 10:29:24;;;;;;;36.53;8.23;;;10.90;99.90;;;;;;5062818;28;20031;-87
2024/01/24 10:31:56;;;;;;;31.90;6.93;;;10.90;99.90;;;;;;5079300;28;20028;-87
2024/01/24 10:34:26;;;;;;;29.75;7.22;;;10.90;99.90;;;;;;5079020;28;20074;-89
2024/01/24 10:36:52;;;;;;;25.23;7.05;;;11.00;99.90;;;;;;5079160;28;20031;-86
2024/01/24 10:39:20;;;;;;;33.60;8.13;;;11.00;99.90;;;;;;5078976;28;20020;-86
2024/01/24 10:41:48;;;;;;;32.33;7.90;;;11.00;99.90;;;;;;5078813;28;20040;-88
2024/01/24 10:44:17;;;;;;;33.40;8.25;;;11.00;99.90;;;;;;5097052;28;20016;-88
2024/01/24 10:46:43;;;;;;;24.63;6.82;;;11.00;99.90;;;;;;5096814;28;20099;-86
2024/01/24 10:49:12;;;;;;;27.00;7.38;;;11.00;99.90;;;;;;5062293;28;20056;-87
2024/01/24 10:51:39;;;;;;;32.60;7.13;;;11.00;99.90;;;;;;5061994;28;20058;-86
2024/01/24 10:54:07;;;;;;;26.05;6.95;;;11.00;99.90;;;;;;5078901;28;20032;-88
2024/01/24 10:56:34;;;;;;;29.75;7.60;;;10.90;99.90;;;;;;5079110;28;20093;-87
2024/01/24 10:59:03;;;;;;;26.35;6.50;;;10.90;99.90;;;;;;5078577;28;20089;-88
2024/01/24 11:01:29;;;;;;;31.27;7.82;;;10.90;99.90;;;;;;5097094;28;20103;-88
2024/01/24 11:03:58;;;;;;;27.05;7.03;;;11.00;99.90;;;;;;5096611;28;20052;-87
2024/01/24 11:06:28;;;;;;;27.40;6.32;;;10.90;99.90;;;;;;5061867;28;20024;-86
2024/01/24 11:09:23;;;;;;;27.10;6.50;;;10.90;99.90;;;;;;5078566;28;20040;-87
2024/01/24 11:11:53;;;;;;;24.15;5.97;;;11.00;99.90;;;;;;5096437;28;20028;-87
2024/01/24 11:14:33;;;;;;;27.10;6.60;;;11.00;99.90;;;;;;5078463;28;20024;-87
2024/01/24 11:17:05;;;;;;;26.23;6.05;;;11.00;99.90;;;;;;5079738;28;20029;-87
2024/01/24 11:19:31;;;;;;;22.27;5.75;;;11.00;99.90;;;;;;5078406;28;20028;-86
2024/01/24 11:22:04;;;;;;;18.10;5.32;;;11.00;99.90;;;;;;5063884;28;20097;-86
2024/01/24 11:24:46;;;;;;;26.40;6.68;;;11.00;99.90;;;;;;5099056;28;20064;-87
2024/01/24 11:27:33;;;;;;;;;;;11.00;99.90;;;;;;5102871;28;20048;-84
2024/01/24 11:30:11;;;;;;;29.02;5.90;;;11.10;99.90;;;;;;5094032;28;19892;-84
2024/01/24 11:32:55;;;;;;;27.63;7.22;;;11.00;99.90;;;;;;5097786;28;20036;-87
2024/01/24 11:35:45;;;;;;;28.38;6.80;;;11.00;99.90;;;;;;5078315;28;20506;-86
2024/01/24 11:38:17;;;;;;;27.13;7.32;;;11.00;99.90;;;;;;5095970;28;20414;-85
2024/01/24 11:40:47;;;;;;;27.75;6.70;;;11.00;99.90;;;;;;5077772;28;20364;-85
2024/01/24 11:43:26;;;;;;;24.75;6.13;;;11.00;99.90;;;;;;5095683;28;20047;-86
2024/01/24 11:45:56;;;;;;;25.65;7.32;;;11.00;99.90;;;;;;5061112;28;20039;-87
2024/01/24 11:48:24;;;;;;;22.83;6.18;;;11.00;99.90;;;;;;5077339;28;20372;-86
2024/01/24 11:51:06;;;;;;;30.70;7.22;;;11.00;99.90;;;;;;5095013;28;20020;-86
2024/01/24 11:53:32;;;;;;;20.30;6.35;;;11.00;99.90;;;;;;5095336;28;20032;-86
2024/01/24 11:56:01;;;;;;;33.13;7.93;;;11.00;99.90;;;;;;5060579;28;20487;-86
2024/01/24 11:58:28;;;;;;;28.30;6.68;;;11.00;99.90;;;;;;5076524;28;20364;-86
2024/01/24 12:01:03;;;;;;;25.27;6.90;;;11.00;99.90;;;;;;5060749;28;20032;-86
2024/01/24 12:03:29;;;;;;;27.17;7.47;;;11.00;99.90;;;;;;5076872;28;20035;-87
2024/01/24 12:05:56;;;;;;;22.73;5.60;;;11.00;99.90;;;;;;5077581;28;20028;-86
2024/01/24 12:08:22;;;;;;;34.00;7.22;;;11.00;99.90;;;;;;5076368;28;20139;-86
2024/01/24 12:10:48;;;;;;;32.45;7.47;;;11.10;99.90;;;;;;5095061;28;20375;-86
2024/01/24 12:13:15;;;;;;;33.92;7.40;;;11.10;99.90;;;;;;5095007;28;20024;-86
2024/01/24 12:15:44;;;;;;;23.35;6.03;;;11.10;99.90;;;;;;5060215;28;20388;-85
2024/01/24 12:18:12;;;;;;;26.95;6.80;;;11.10;99.90;;;;;;5060514;28;20024;-86
2024/01/24 12:20:38;;;;;;;28.95;7.15;;;11.10;99.90;;;;;;5076907;28;20046;-87
2024/01/24 12:23:06;;;;;;;23.02;6.07;;;11.10;99.90;;;;;;5076899;28;20032;-86
2024/01/24 12:25:32;;;;;;;26.73;6.13;;;11.10;99.90;;;;;;5060547;28;20032;-87
2024/01/24 12:27:58;;;;;;;31.20;7.40;;;11.20;99.90;;;;;;5075668;28;20042;-86
2024/01/24 12:30:32;;;;;;;27.48;6.35;;;11.20;99.90;;;;;;5076504;28;20115;-86
2024/01/24 12:33:02;;;;;;;26.02;6.63;;;11.20;99.90;;;;;;5076545;28;20039;-86
2024/01/24 12:35:31;;;;;;;26.33;5.97;;;11.20;99.90;;;;;;5060388;28;20532;-86
2024/01/24 12:38:02;;;;;;;30.52;6.65;;;11.20;99.90;;;;;;5076292;28;20085;-85
2024/01/24 12:40:29;;;;;;;29.67;6.68;;;11.20;99.90;;;;;;5059261;28;20036;-85